Latest Weather Observations for Loxton

IDS60801

Issued at 7:35 pm CDT Thursday 23 October 2014 (issued every 30 minutes, with the page automatically refreshed every 10 minutes)

About weather observations | Map of weather stations | Latest weather observations for SA | Other Formats
Station Details ID: 024024 Name: LOXTON RESEARCH CENTRE Lat: -34.44 Lon: 140.60 Height: 30.1 m
Data from the previous 72 hours. | See also: Recent months at Loxton
Date/Time
CDT
Temp
°C
App
Temp
°C
Dew
Point
Rel
Hum
%
Delta-T
°C
Wind Press
QNH
hPa
Press
MSL
hPa
Rain
since 9 am
mm
Dir
 
Spd
km/h
Gust
km/h
Spd
kts
Gust
kts
23/07:30pm 27.0 24.4 7.8 29 10.3 SW 11 15 6 8 1012.6 1012.6 0.0
23/07:00pm 28.1 25.5 7.7 27 11.0 SW 11 15 6 8 1012.3 1012.3 0.0
23/06:30pm 29.6 26.9 7.2 24 12.1 SW 11 17 6 9 1012.1 1012.1 0.0
23/06:00pm 30.3 27.5 6.9 23 12.6 SW 11 17 6 9 1011.9 1011.9 0.0
23/05:30pm 31.0 28.1 6.7 21 13.1 SW 11 20 6 11 1011.8 1011.8 0.0
23/05:00pm 30.9 28.1 7.1 22 12.9 S 11 17 6 9 1011.6 1011.6 0.0
23/04:30pm 30.9 27.4 7.1 22 12.9 WSW 15 24 8 13 1011.8 1011.8 0.0
23/04:00pm 30.9 28.8 8.3 24 12.5 SW 9 15 5 8 1012.0 1012.0 0.0
23/03:30pm 30.3 27.6 8.9 26 11.9 SSW 13 19 7 10 1012.2 1012.2 0.0
23/03:00pm 29.6 26.9 8.9 27 11.5 W 13 17 7 9 1012.8 1012.7 0.0
23/02:30pm 28.9 27.1 9.3 29 10.9 SW 9 19 5 10 1013.4 1013.3 0.0
23/02:00pm 28.5 26.9 10.2 32 10.3 WSW 9 15 5 8 1013.8 1013.7 0.0
23/01:30pm 27.7 25.3 10.0 33 9.9 SW 13 17 7 9 1014.3 1014.2 0.0
23/01:00pm 26.1 23.6 9.8 35 9.0 SW 13 20 7 11 1014.7 1014.6 0.0
23/12:30pm 24.8 22.8 10.1 39 8.1 SW 11 17 6 9 1015.2 1015.1 0.0
23/12:00pm 23.4 21.4 10.1 43 7.3 WSW 11 22 6 12 1015.8 1015.7 0.0
23/11:30am 22.5 21.0 10.5 46 6.6 SW 9 19 5 10 1016.2 1016.1 0.0
23/11:00am 20.9 19.0 10.6 51 5.6 SSW 11 15 6 8 1016.5 1016.4 0.0
23/10:30am 20.1 18.6 10.7 54 5.1 SSW 9 19 5 10 1017.0 1016.9 0.0
23/10:00am 18.8 16.9 10.6 59 4.4 S 11 17 6 9 1017.2 1017.1 0.0
23/09:30am 17.5 15.3 10.8 65 3.6 SSW 13 19 7 10 1017.6 1017.5 0.0
23/09:00am 16.4 13.8 10.8 69 3.0 SSW 15 24 8 13 1017.6 1017.5 0.0
23/08:30am 15.9 13.4 11.0 72 2.6 SSW 15 22 8 12 1017.6 1017.5 0.0
23/08:00am 15.0 12.1 11.0 77 2.1 SSW 17 22 9 12 1017.7 1017.6 0.0
23/07:30am 14.3 12.3 11.5 83 1.5 SSW 13 17 7 9 1017.8 1017.7 0.0
23/07:00am 13.6 11.5 11.1 85 1.3 SW 13 20 7 11 1017.6 1017.5 0.0
23/06:30am 13.2 10.8 11.3 88 1.0 SW 15 20 8 11 1017.3 1017.2 0.0
23/06:00am 13.0 10.1 11.1 88 1.0 SW 17 24 9 13 1017.0 1016.9 0.0
23/05:30am 13.0 10.2 11.3 89 0.9 SW 17 26 9 14 1016.7 1016.6 0.0
23/05:00am 13.1 10.0 11.6 91 0.8 SSW 19 28 10 15 1016.0 1015.9 0.0
23/04:30am 13.2 10.5 11.7 91 0.8 SW 17 26 9 14 1015.9 1015.8 0.0
23/04:00am 13.2 10.5 11.7 91 0.8 SW 17 26 9 14 1015.8 1015.7 0.0
23/03:30am 13.4 10.3 11.7 89 0.9 SW 19 28 10 15 1015.6 1015.5 0.0
23/03:00am 13.5 10.5 12.0 91 0.8 WSW 19 26 10 14 1016.0 1015.9 0.0
23/02:30am 13.7 11.1 12.0 89 0.9 SW 17 24 9 13 1016.1 1016.0 0.0
23/02:00am 13.9 12.1 12.0 88 1.0 SW 13 19 7 10 1016.2 1016.1 0.0
23/01:30am 14.0 12.6 12.1 88 1.0 SW 11 15 6 8 1016.7 1016.6 0.0
23/01:00am 14.2 11.7 12.2 88 1.1 SW 17 26 9 14 1016.9 1016.8 0.0
23/12:30am 14.5 11.4 12.1 85 1.3 SW 20 28 11 15 1017.0 1016.9 0.0
23/12:00am 14.8 11.8 12.0 83 1.5 SW 19 28 10 15 1017.2 1017.1 0.0
 
Date/Time
CDT
Temp
°C
App
Temp
°C
Dew
Point
Rel
Hum
%
Delta-T
°C
Wind Press
QNH
hPa
Press
MSL
hPa
Rain
since 9 am
mm
Dir
 
Spd
km/h
Gust
km/h
Spd
kts
Gust
kts
22/11:30pm 15.1 12.5 12.0 82 1.7 SW 17 24 9 13 1017.2 1017.1 0.0
22/11:00pm 15.6 13.0 11.9 78 2.0 WSW 17 26 9 14 1017.4 1017.3 0.0
22/10:30pm 16.3 12.4 12.1 76 2.3 SW 24 35 13 19 1017.5 1017.4 0.0
22/10:00pm 17.1 13.9 12.0 72 2.8 SW 20 32 11 17 1017.8 1017.7 0.0
22/09:30pm 18.3 14.3 11.7 65 3.6 SW 24 35 13 19 1017.4 1017.3 0.0
22/09:00pm 19.7 15.9 11.3 58 4.6 SW 22 35 12 19 1016.9 1016.8 0.0
22/08:30pm 21.6 17.3 10.9 50 5.9 SW 24 35 13 19 1016.3 1016.2 0.0
22/08:00pm 23.3 19.3 10.6 44 7.0 SW 22 35 12 19 1015.9 1015.8 0.0
22/07:30pm 25.4 21.1 9.5 36 8.7 SW 22 35 12 19 1015.4 1015.3 0.0
22/07:00pm 27.3 22.2 9.1 31 10.0 SW 26 35 14 19 1014.5 1014.4 0.0
22/06:30pm 28.7 23.3 8.2 27 11.2 SW 26 39 14 21 1014.1 1014.0 0.0
22/06:00pm 29.2 24.2 7.9 26 11.6 SW 24 35 13 19 1013.9 1013.8 0.0
22/05:30pm 29.2 23.6 8.7 27 11.3 SW 28 41 15 22 1013.7 1013.6 0.0
22/05:00pm 31.2 25.7 9.1 25 12.4 SW 28 39 15 21 1013.2 1013.1 0.0
22/04:30pm 33.7 27.2 8.1 20 14.3 SW 32 46 17 25 1012.8 1012.7 0.0
22/04:27pm 34.0 26.4 7.5 19 14.7 WSW 37 46 20 25 1012.6 1012.6 0.0
22/04:00pm 36.1 32.6 1.3 11 17.7 NNE 9 13 5 7 1012.0 1012.0 0.0
22/03:30pm 37.8 33.5 -1.9 8 19.4 WSW 11 22 6 12 1012.1 1012.1 0.0
22/03:00pm 37.2 32.9 0.7 10 18.5 WSW 13 20 7 11 1012.6 1012.6 0.0
22/02:30pm 36.7 32.1 -0.8 9 18.5 NNE 13 22 7 12 1013.2 1013.1 0.0
22/02:00pm 36.9 33.0 1.2 10 18.2 N 11 20 6 11 1013.7 1013.6 0.0
22/01:30pm 36.1 32.0 -0.2 10 18.0 NE 11 17 6 9 1014.4 1014.3 0.0
22/01:00pm 34.2 29.9 3.0 14 16.1 NNE 15 20 8 11 1014.9 1014.8 0.0
22/12:30pm 35.0 31.0 3.0 13 16.6 N 13 17 7 9 1015.5 1015.4 0.0
22/12:00pm 33.3 30.0 4.7 16 15.1 N 11 19 6 10 1015.8 1015.7 0.0
22/11:30am 31.8 29.1 5.6 19 13.9 N 9 11 5 6 1016.2 1016.1 0.0
22/11:00am 30.8 27.9 4.6 19 13.6 N 9 15 5 8 1016.5 1016.4 0.0
22/10:30am 29.3 27.0 5.6 22 12.4 NW 7 13 4 7 1016.9 1016.8 0.0
22/10:00am 29.8 26.2 4.9 20 12.9 N 13 19 7 10 1016.8 1016.7 0.0
22/09:30am 30.0 26.7 6.3 22 12.6 N 13 20 7 11 1016.5 1016.4 0.0
22/09:00am 28.5 25.8 7.2 26 11.4 NE 11 17 6 9 1016.2 1016.1 0.2
22/08:30am 27.8 24.2 6.6 26 11.2 E 15 20 8 11 1015.9 1015.8 -
22/08:00am 25.7 22.5 6.8 30 9.9 ESE 13 19 7 10 1016.0 1015.9 -
22/07:30am 23.7 20.3 6.1 32 9.0 ESE 13 22 7 12 1015.9 1015.8 -
22/07:00am 22.1 19.2 6.3 36 8.0 ENE 11 19 6 10 1016.5 1016.4 -
22/06:30am 22.6 18.6 5.1 32 8.7 SSW 15 32 8 17 1017.0 1016.9 -
22/06:23am 20.3 15.1 5.5 38 7.3 W 22 28 12 15 1017.8 1017.7 -
22/06:00am 19.8 17.2 5.9 40 6.9 ESE 9 11 5 6 1015.6 1015.5 -
22/05:30am 19.8 16.8 6.2 41 6.8 SE 11 13 6 7 1015.4 1015.3 -
22/05:00am 19.8 17.3 6.7 42 6.6 SE 9 11 5 6 1015.5 1015.4 -
22/04:30am 21.0 19.1 6.6 39 7.3 SE 6 11 3 6 1015.7 1015.6 -
22/04:00am 22.2 19.3 4.8 32 8.6 S 9 15 5 8 1015.7 1015.6 -
22/03:30am 22.2 19.0 5.1 33 8.5 SSE 11 17 6 9 1016.3 1016.2 -
22/03:00am 22.6 21.6 5.4 32 8.6 CALM 0 4 0 2 1017.1 1017.0 0.0
22/02:30am 24.3 19.2 3.0 25 10.3 NW 19 30 10 16 1018.1 1018.0 -
22/02:00am 24.2 21.1 3.8 26 10.0 SE 9 15 5 8 1016.6 1016.5 -
22/01:30am 24.5 19.4 3.1 25 10.4 E 19 26 10 14 1016.6 1016.5 -
22/01:00am 24.1 19.4 3.0 25 10.2 E 17 20 9 11 1016.9 1016.8 -
22/12:30am 23.8 19.4 2.7 25 10.1 E 15 20 8 11 1017.3 1017.2 -
22/12:00am 23.8 19.5 3.1 26 10.0 E 15 17 8 9 1017.5 1017.4 -
 
Date/Time
CDT
Temp
°C
App
Temp
°C
Dew
Point
Rel
Hum
%
Delta-T
°C
Wind Press
QNH
hPa
Press
MSL
hPa
Rain
since 9 am
mm
Dir
 
Spd
km/h
Gust
km/h
Spd
kts
Gust
kts
21/11:30pm 25.9 21.4 2.3 21 11.4 E 15 22 8 12 1017.6 1017.5 -
21/11:00pm 26.7 21.7 1.4 19 12.1 E 17 24 9 13 1017.7 1017.6 -
21/10:30pm 26.4 21.2 -0.1 17 12.3 E 17 24 9 13 1017.7 1017.6 -
21/10:00pm 23.4 18.9 2.3 25 10.0 ESE 15 17 8 9 1017.7 1017.6 -
21/09:30pm 22.4 19.8 5.9 34 8.3 SE 9 11 5 6 1017.6 1017.5 -
21/09:00pm 22.2 20.9 11.2 49 6.1 SE 9 11 5 6 1017.4 1017.3 0.0
21/08:30pm 23.2 21.9 9.8 42 7.3 SE 7 11 4 6 1017.2 1017.1 -
21/08:00pm 25.4 23.1 9.0 35 8.9 SSE 11 13 6 7 1017.1 1017.0 -
21/07:30pm 26.2 25.4 11.6 40 8.3 S 7 11 4 6 1017.0 1016.9 -
21/07:00pm 28.7 29.1 15.3 44 8.2 SSE 7 9 4 5 1016.7 1016.6 -
21/06:30pm 32.2 29.5 5.8 19 14.1 SE 9 11 5 6 1016.5 1016.4 -
21/06:00pm 33.2 31.0 8.0 21 14.0 SE 9 11 5 6 1016.5 1016.4 -
21/05:30pm 34.2 31.8 5.2 16 15.5 SE 7 11 4 6 1016.6 1016.5 -
21/05:00pm 36.0 32.7 0.4 10 17.8 SSE 7 11 4 6 1016.7 1016.6 -
21/04:30pm 36.2 32.4 -0.4 10 18.1 SSW 9 13 5 7 1016.8 1016.7 -
21/04:00pm 35.8 31.9 -1.2 9 18.0 S 9 13 5 7 1017.1 1017.0 -
21/03:30pm 36.1 32.6 -1.3 9 18.2 N 7 13 4 7 1017.4 1017.3 -
21/03:00pm 36.8 33.8 2.1 11 17.9 SSE 7 13 4 7 1017.8 1017.7 -
21/02:30pm 35.5 31.9 0.8 11 17.4 ENE 9 15 5 8 1018.5 1018.4 -
21/02:00pm 35.2 32.1 1.3 12 17.1 NW 7 11 4 6 1019.1 1019.0 -
21/01:30pm 34.9 30.0 -0.5 10 17.3 N 15 24 8 13 1019.6 1019.5 -
21/01:00pm 34.0 29.7 0.7 12 16.5 N 13 22 7 12 1019.9 1019.8 -
21/12:30pm 33.2 28.2 1.2 13 15.9 N 17 24 9 13 1020.5 1020.4 -
21/12:00pm 32.0 27.1 2.0 15 15.0 N 17 26 9 14 1021.1 1021.0 -
21/11:30am 31.1 27.1 2.6 16 14.3 N 13 20 7 11 1021.4 1021.3 0.2
21/11:00am 30.2 26.6 3.2 18 13.7 N 11 17 6 9 1021.8 1021.7 0.2
21/10:30am 28.3 24.3 2.8 19 12.6 NE 13 20 7 11 1022.2 1022.1 0.2
21/10:00am 26.5 23.3 3.1 22 11.5 E 9 13 5 7 1022.4 1022.3 0.2
21/09:30am - - - - - - - - - - - 1019.7 -
21/09:00am 22.4 18.3 2.1 26 9.5 ENE 13 19 7 10 1022.5 1022.4 0.0
21/08:30am 20.1 15.8 1.3 28 8.5 ENE 13 20 7 11 1022.8 1022.7 0.0
21/08:00am 18.5 14.3 1.6 32 7.6 E 13 17 7 9 1022.6 1022.5 0.0
21/07:30am 16.9 12.7 1.9 36 6.7 E 13 17 7 9 1022.5 1022.4 0.0
21/07:00am 15.4 11.9 1.4 38 6.1 ESE 9 13 5 7 1022.2 1022.1 0.0
21/06:30am 13.8 10.2 0.8 41 5.5 E 9 15 5 8 1022.0 1021.9 0.0
21/06:00am 14.1 9.7 0.3 39 5.8 E 13 17 7 9 1021.6 1021.5 0.0
21/05:30am 13.3 10.3 2.0 46 4.9 ESE 7 11 4 6 1021.3 1021.2 0.0
21/05:00am 13.8 9.8 0.8 41 5.5 ESE 11 13 6 7 1021.0 1020.9 0.0
21/04:30am 14.5 10.1 0.6 38 5.9 ESE 13 15 7 8 1020.9 1020.8 0.0
21/04:00am 14.0 10.3 2.1 44 5.2 ESE 11 13 6 7 1021.1 1021.0 0.0
21/03:30am 14.3 10.7 2.8 46 5.1 ESE 11 13 6 7 1021.2 1021.1 0.0
21/03:00am 14.9 11.7 2.8 44 5.4 SE 9 11 5 6 1021.3 1021.2 0.0
21/02:30am 15.2 12.0 3.0 44 5.5 ESE 9 11 5 6 1021.5 1021.4 0.0
21/02:00am 16.0 12.4 3.0 41 5.9 ESE 11 13 6 7 1021.8 1021.7 0.0
21/01:30am 16.1 12.3 3.7 43 5.7 SE 13 13 7 7 1021.9 1021.8 0.0
21/01:00am 16.9 12.6 3.4 40 6.2 SE 15 17 8 9 1022.2 1022.1 0.0
21/12:30am 18.2 14.3 3.6 38 6.8 ESE 13 19 7 10 1022.4 1022.3 0.0
21/12:00am 18.1 14.3 3.8 38 6.7 ESE 13 17 7 9 1022.4 1022.3 0.0
 
Date/Time
CDT
Temp
°C
App
Temp
°C
Dew
Point
Rel
Hum
%
Delta-T
°C
Wind Press
QNH
hPa
Press
MSL
hPa
Rain
since 9 am
mm
Dir
 
Spd
km/h
Gust
km/h
Spd
kts
Gust
kts
20/11:30pm 18.7 14.9 4.1 38 6.9 SE 13 19 7 10 1022.5 1022.4 0.0
20/11:00pm 18.9 15.2 4.4 38 6.9 SE 13 15 7 8 1022.6 1022.5 0.0
20/10:30pm 18.1 15.2 6.3 46 5.8 ESE 11 15 6 8 1022.7 1022.6 0.0
20/10:00pm 17.9 15.6 7.6 51 5.2 ESE 9 13 5 7 1022.7 1022.6 0.0
20/09:30pm 17.1 15.6 9.2 59 4.1 SE 7 9 4 5 1022.7 1022.6 0.0
20/09:00pm 17.4 16.4 10.9 65 3.5 SE 7 9 4 5 1022.5 1022.4 0.0
20/08:30pm 18.6 18.2 11.0 61 4.1 SE 4 6 2 3 1022.2 1022.1 0.0
20/08:00pm 19.5 18.2 9.9 54 5.1 SSE 7 9 4 5 1021.9 1021.8 0.0

Other Formats:

Comma delimited format used in spreadsheet applications
http://www.bom.gov.au/fwo/IDS60801/IDS60801.94682.axf

JavaScript Object Notation format (JSON) in row-major order
http://www.bom.gov.au/fwo/IDS60801/IDS60801.94682.json